Hickman, Kentucky
Current Conditions -  °F | °C
As of 12:15 PM on Monday 24 Nov 2014 (Local Time) from KUCY Reporting Station
Few Clouds Few Clouds  
Wind Chill: 41°   Ceiling: Unl
Heat Index: 48°   Visibility: 10mi
Dew Point: 36°   Wind: 21mph
Humidity: 62%   Direction: 250°WSW
Pressure: 29.81"   Gusts: NA
Location:  36.57°N, 89.19°W
Report Text: KUCY 241815Z AUTO 25018KT 10SM FEW041 09/02 A2981 RMK
Loading
Personal Weather Stations






























Interactive Weather Map New forecast layout! Learn more

10-Day Weather Forecast

Advertisements
Track Severe Weather on mobile